Time;durP1;ratioP1;P1;durP2;ratioP2;P2;SDS_P1;SDS_P2;PMS_P1;PMS_P2;Temp;Humidity;BMP_temperature;BMP_pressure;BME280_temperature;BME280_humidity;BME280_pressure;Samples;Min_cycle;Max_cycle;Signal;HPM_P1;HPM_P2
2023/08/19 00:01:12;;;;;;;22.10;18.25;;;20.90;99.90;;;;;;5080540;28;20644;-81
2023/08/19 00:03:39;;;;;;;21.02;18.65;;;20.80;99.90;;;;;;5081695;28;20213;-80
2023/08/19 00:06:07;;;;;;;19.85;17.27;;;20.90;99.90;;;;;;5081307;28;20221;-80
2023/08/19 00:08:34;;;;;;;21.30;16.95;;;20.60;99.90;;;;;;5080862;28;20313;-80
2023/08/19 00:11:01;;;;;;;19.08;16.30;;;20.50;99.90;;;;;;5081022;28;20285;-80
2023/08/19 00:13:29;;;;;;;18.92;16.50;;;20.60;99.90;;;;;;5082141;28;20206;-80
2023/08/19 00:15:57;;;;;;;20.15;16.85;;;20.70;99.90;;;;;;5081599;28;20265;-80
2023/08/19 00:18:24;;;;;;;18.90;16.90;;;20.60;99.90;;;;;;5080440;28;20266;-81
2023/08/19 00:20:51;;;;;;;18.40;16.15;;;20.50;99.90;;;;;;5081003;28;20202;-80
2023/08/19 00:23:18;;;;;;;21.52;17.63;;;20.40;99.90;;;;;;5080711;28;20198;-80
2023/08/19 00:25:45;;;;;;;19.52;16.98;;;20.30;99.90;;;;;;5080295;28;20223;-79
2023/08/19 00:28:12;;;;;;;19.50;16.75;;;20.30;99.90;;;;;;5077744;28;20205;-80
2023/08/19 00:30:40;;;;;;;20.05;17.75;;;20.30;99.90;;;;;;5077224;28;20202;-80
2023/08/19 00:33:07;;;;;;;19.13;16.95;;;20.20;99.90;;;;;;5080802;28;20206;-80
2023/08/19 00:35:33;;;;;;;20.35;16.95;;;20.00;99.90;;;;;;5080617;28;20564;-80
2023/08/19 00:38:00;;;;;;;19.45;16.67;;;19.90;99.90;;;;;;5080786;28;20214;-80
2023/08/19 00:40:27;;;;;;;18.95;15.48;;;19.70;99.90;;;;;;5079869;28;20596;-80
2023/08/19 00:42:54;;;;;;;20.75;17.67;;;19.70;99.90;;;;;;5079687;28;20210;-79
2023/08/19 00:45:21;;;;;;;21.80;18.98;;;19.80;99.90;;;;;;5079563;28;20226;-80
2023/08/19 00:47:49;;;;;;;21.45;17.75;;;19.90;99.90;;;;;;5079542;28;20584;-80
2023/08/19 00:50:16;;;;;;;21.58;17.95;;;19.90;99.90;;;;;;5079216;28;20228;-79
2023/08/19 00:52:45;;;;;;;21.23;18.52;;;19.70;99.90;;;;;;5079396;28;20586;-80
2023/08/19 00:55:12;;;;;;;22.40;18.77;;;19.70;99.90;;;;;;5081038;28;20676;-80
2023/08/19 00:57:40;;;;;;;21.15;18.13;;;19.70;99.90;;;;;;5080648;28;20202;-80
2023/08/19 01:00:08;;;;;;;21.35;17.65;;;19.80;99.90;;;;;;5080323;28;20236;-79
2023/08/19 01:02:35;;;;;;;20.48;16.48;;;19.80;99.90;;;;;;5080733;28;20255;-80
2023/08/19 01:05:03;;;;;;;23.20;17.80;;;19.70;99.90;;;;;;5080705;28;20206;-80
2023/08/19 01:07:38;;;;;;;20.45;15.18;;;19.50;99.90;;;;;;5080172;28;20222;-79
2023/08/19 01:10:12;;;;;;;18.08;15.40;;;19.20;99.90;;;;;;5079504;28;20232;-80
2023/08/19 01:12:47;;;;;;;21.80;16.83;;;19.20;99.90;;;;;;5080360;28;20206;-80
2023/08/19 01:15:18;;;;;;;20.75;16.98;;;19.30;99.90;;;;;;5079074;28;20206;-80
2023/08/19 01:17:49;;;;;;;19.85;17.05;;;19.10;99.90;;;;;;5080141;28;20206;-79
2023/08/19 01:20:18;;;;;;;22.73;18.35;;;19.20;99.90;;;;;;5078966;28;20834;-80
2023/08/19 01:22:50;;;;;;;20.63;16.85;;;19.30;99.90;;;;;;5080562;28;20202;-80
2023/08/19 01:25:19;;;;;;;22.23;16.90;;;19.40;99.90;;;;;;5080377;28;20205;-80
2023/08/19 01:27:46;;;;;;;20.98;17.48;;;19.40;99.90;;;;;;5079801;28;20220;-80
2023/08/19 01:30:14;;;;;;;21.20;17.48;;;19.50;99.90;;;;;;5078648;28;20229;-80
2023/08/19 01:32:42;;;;;;;20.30;17.48;;;19.50;99.90;;;;;;5078577;28;20206;-80
2023/08/19 01:35:09;;;;;;;23.63;19.95;;;19.40;99.90;;;;;;5078989;28;20234;-79
2023/08/19 01:37:40;;;;;;;22.10;19.10;;;19.50;99.90;;;;;;5078456;28;20198;-80
2023/08/19 01:40:10;;;;;;;22.38;19.35;;;19.20;99.90;;;;;;5078575;28;20226;-80
2023/08/19 01:42:40;;;;;;;24.88;19.27;;;19.20;99.90;;;;;;5079716;28;20626;-80
2023/08/19 01:45:08;;;;;;;22.08;18.58;;;19.30;99.90;;;;;;5079127;28;20210;-80
2023/08/19 01:47:37;;;;;;;21.85;18.48;;;19.40;99.90;;;;;;5078819;28;20650;-79
2023/08/19 01:50:04;;;;;;;25.52;19.92;;;19.60;99.90;;;;;;5079100;28;20225;-79
2023/08/19 01:52:32;;;;;;;28.02;18.77;;;19.60;99.90;;;;;;5079300;28;20206;-80
2023/08/19 01:54:58;;;;;;;24.83;18.75;;;19.60;99.90;;;;;;5078952;28;20624;-80
2023/08/19 01:57:26;;;;;;;20.80;17.02;;;19.20;99.90;;;;;;5078422;28;20194;-80
2023/08/19 01:59:54;;;;;;;22.00;17.45;;;19.00;99.90;;;;;;5078513;28;20236;-80
2023/08/19 02:02:21;;;;;;;22.88;18.20;;;18.70;99.90;;;;;;5078554;28;20562;-79
2023/08/19 02:04:48;;;;;;;22.92;19.10;;;18.80;99.90;;;;;;5078269;28;20212;-80
2023/08/19 02:07:15;;;;;;;25.20;22.38;;;18.60;99.90;;;;;;5078519;28;20283;-79
2023/08/19 02:09:42;;;;;;;25.20;21.00;;;18.50;99.90;;;;;;5077534;28;20218;-80
2023/08/19 02:12:09;;;;;;;22.05;18.55;;;18.50;99.90;;;;;;5078738;28;20846;-79
2023/08/19 02:14:36;;;;;;;20.77;16.92;;;18.50;99.90;;;;;;5078665;28;20265;-79
2023/08/19 02:17:04;;;;;;;22.27;18.30;;;18.50;99.90;;;;;;5078694;28;20206;-80
2023/08/19 02:19:31;;;;;;;21.33;17.90;;;18.70;99.90;;;;;;5077800;28;20226;-80
2023/08/19 02:21:58;;;;;;;22.38;18.17;;;18.80;99.90;;;;;;5078702;28;20206;-80
2023/08/19 02:24:26;;;;;;;23.02;17.65;;;18.80;99.90;;;;;;5078719;28;20206;-79
2023/08/19 02:26:52;;;;;;;23.50;17.75;;;18.80;99.90;;;;;;5081392;28;20233;-79
2023/08/19 02:29:19;;;;;;;20.73;17.60;;;18.80;99.90;;;;;;5081053;28;20309;-80
2023/08/19 02:31:47;;;;;;;19.58;16.83;;;18.90;99.90;;;;;;5081099;28;20198;-80
2023/08/19 02:34:15;;;;;;;25.30;19.90;;;18.80;99.90;;;;;;5082232;28;20627;-79
2023/08/19 02:36:42;;;;;;;20.73;17.45;;;18.80;99.90;;;;;;5082875;28;20199;-79
2023/08/19 02:39:09;;;;;;;19.58;16.65;;;18.80;99.90;;;;;;5080950;28;20234;-79
2023/08/19 02:41:35;;;;;;;22.70;19.02;;;18.70;99.90;;;;;;5080359;28;20210;-79
2023/08/19 02:44:02;;;;;;;21.13;16.23;;;18.60;99.90;;;;;;5081516;28;20206;-80
2023/08/19 02:46:29;;;;;;;20.15;17.25;;;18.60;99.90;;;;;;5081012;28;20218;-80
2023/08/19 02:48:56;;;;;;;23.02;18.48;;;18.80;99.90;;;;;;5080309;28;20281;-80
2023/08/19 02:51:24;;;;;;;21.85;18.38;;;18.90;99.90;;;;;;5081867;28;20265;-80
2023/08/19 02:53:51;;;;;;;21.83;17.70;;;18.80;99.90;;;;;;5082352;28;20294;-80
2023/08/19 02:56:17;;;;;;;24.83;18.17;;;18.80;99.90;;;;;;5081423;28;20206;-80
2023/08/19 02:58:44;;;;;;;24.52;18.50;;;18.80;99.90;;;;;;5080492;28;20224;-79
2023/08/19 03:01:13;;;;;;;22.65;17.98;;;18.80;99.90;;;;;;5081191;28;20656;-80
2023/08/19 03:03:40;;;;;;;22.58;19.17;;;18.70;99.90;;;;;;5080757;28;20210;-79
2023/08/19 03:06:07;;;;;;;22.95;19.02;;;18.60;99.90;;;;;;5080674;28;20210;-80
2023/08/19 03:08:35;;;;;;;25.27;20.27;;;18.60;99.90;;;;;;5080758;28;20226;-79
2023/08/19 03:11:02;;;;;;;25.60;21.98;;;18.70;99.90;;;;;;5080955;28;20563;-79
2023/08/19 03:13:29;;;;;;;26.63;21.65;;;18.70;99.90;;;;;;5080642;28;20266;-80
2023/08/19 03:16:00;;;;;;;23.08;19.08;;;18.60;99.90;;;;;;5080452;28;20199;-79
2023/08/19 03:18:27;;;;;;;22.02;18.63;;;18.60;99.90;;;;;;5080410;28;20228;-80
2023/08/19 03:20:57;;;;;;;22.67;16.95;;;18.50;99.90;;;;;;5081581;28;20528;-79
2023/08/19 03:23:25;;;;;;;25.45;17.15;;;18.30;99.90;;;;;;5080924;28;20228;-79
2023/08/19 03:25:55;;;;;;;25.73;19.98;;;18.00;99.90;;;;;;5079758;28;20209;-79
2023/08/19 03:28:22;;;;;;;26.40;21.42;;;18.20;99.90;;;;;;5079882;28;20206;-79
2023/08/19 03:30:49;;;;;;;27.38;21.17;;;18.30;99.90;;;;;;5078100;28;20199;-79
2023/08/19 03:33:15;;;;;;;28.85;22.17;;;18.40;99.90;;;;;;5080820;28;20205;-80
2023/08/19 03:35:42;;;;;;;26.35;21.30;;;18.40;99.90;;;;;;5081354;28;20202;-79
2023/08/19 03:38:09;;;;;;;28.25;22.30;;;18.40;99.90;;;;;;5079656;28;20232;-80
2023/08/19 03:40:36;;;;;;;26.30;20.73;;;18.40;99.90;;;;;;5080832;28;20202;-80
2023/08/19 03:43:05;;;;;;;25.80;21.02;;;18.40;99.90;;;;;;5081374;28;20547;-80
2023/08/19 03:45:34;;;;;;;21.70;17.95;;;18.40;99.90;;;;;;5078527;28;20209;-80
2023/08/19 03:48:01;;;;;;;69.82;18.25;;;18.20;99.90;;;;;;5079635;28;20842;-80
2023/08/19 03:50:27;;;;;;;25.13;20.23;;;18.10;99.90;;;;;;5066369;28;20663;-80
2023/08/19 03:52:54;;;;;;;25.60;20.40;;;18.10;99.90;;;;;;5061661;28;20262;-80
2023/08/19 03:55:21;;;;;;;24.65;18.52;;;18.00;99.90;;;;;;5064175;28;20203;-79
2023/08/19 03:57:48;;;;;;;23.63;17.75;;;17.90;99.90;;;;;;5080860;28;20210;-80
2023/08/19 04:00:16;;;;;;;22.90;17.38;;;17.90;99.90;;;;;;5080779;28;20313;-80
2023/08/19 04:02:43;;;;;;;21.00;16.90;;;17.90;99.90;;;;;;5080555;28;20202;-80
2023/08/19 04:05:12;;;;;;;20.75;16.85;;;17.90;99.90;;;;;;5081592;28;20206;-80
2023/08/19 04:07:39;;;;;;;23.77;17.95;;;17.80;99.90;;;;;;5079925;28;20222;-80
2023/08/19 04:10:06;;;;;;;20.80;17.25;;;17.90;99.90;;;;;;5079278;28;20226;-80
2023/08/19 04:12:33;;;;;;;20.17;17.05;;;17.90;99.90;;;;;;5080699;28;20198;-81
2023/08/19 04:15:00;;;;;;;28.77;18.92;;;17.90;99.90;;;;;;5080015;28;20206;-81
2023/08/19 04:17:28;;;;;;;50.10;21.17;;;17.90;99.90;;;;;;5078440;28;20664;-81
2023/08/19 04:19:55;;;;;;;22.25;17.45;;;17.80;99.90;;;;;;5077267;28;20281;-81
2023/08/19 04:22:22;;;;;;;20.65;17.27;;;17.90;99.90;;;;;;5077606;28;20214;-80
2023/08/19 04:24:53;;;;;;;22.17;16.38;;;18.00;99.90;;;;;;5075923;28;20297;-81
2023/08/19 04:27:21;;;;;;;62.78;18.83;;;18.00;99.90;;;;;;5077486;28;20226;-81
2023/08/19 04:29:48;;;;;;;28.15;19.73;;;18.00;99.90;;;;;;5078963;28;20228;-81
2023/08/19 04:32:15;;;;;;;23.42;18.55;;;17.90;99.90;;;;;;5079662;28;20202;-81
2023/08/19 04:34:43;;;;;;;24.75;19.55;;;18.00;99.90;;;;;;5078786;28;20206;-81
2023/08/19 04:37:10;;;;;;;23.30;18.48;;;18.00;99.90;;;;;;5079030;28;20208;-81
2023/08/19 04:39:37;;;;;;;25.90;18.50;;;18.10;99.90;;;;;;5079084;28;20226;-81
2023/08/19 04:42:04;;;;;;;23.58;18.85;;;18.20;99.90;;;;;;5070967;28;20205;-81
2023/08/19 04:44:31;;;;;;;22.10;17.92;;;18.30;99.90;;;;;;5063144;28;20671;-80
2023/08/19 04:46:59;;;;;;;21.55;18.27;;;18.40;99.90;;;;;;5067657;28;20750;-80
2023/08/19 04:49:26;;;;;;;24.35;18.95;;;18.50;99.90;;;;;;5068357;28;20754;-80
2023/08/19 04:51:54;;;;;;;24.40;19.83;;;18.70;99.90;;;;;;5062804;28;20207;-79
2023/08/19 04:54:21;;;;;;;24.05;20.23;;;19.00;99.90;;;;;;5058336;28;20558;-79
2023/08/19 04:56:48;;;;;;;24.20;19.58;;;19.10;99.90;;;;;;5069375;28;20226;-80
2023/08/19 04:59:15;;;;;;;24.48;20.40;;;19.10;99.90;;;;;;5065608;28;20218;-80
2023/08/19 05:01:43;;;;;;;25.77;18.75;;;19.20;99.90;;;;;;5072583;28;20230;-79
2023/08/19 05:04:10;;;;;;;25.17;20.10;;;19.10;99.90;;;;;;5068729;28;20202;-79
2023/08/19 05:06:37;;;;;;;25.17;20.35;;;19.10;99.90;;;;;;5060193;28;20206;-80
2023/08/19 05:09:05;;;;;;;23.38;20.52;;;19.30;99.90;;;;;;5065655;28;20246;-80
2023/08/19 05:11:32;;;;;;;26.50;21.33;;;19.40;99.90;;;;;;5069806;28;20194;-80
2023/08/19 05:13:59;;;;;;;26.98;20.77;;;19.50;99.90;;;;;;5060376;28;20213;-81
2023/08/19 05:16:25;;;;;;;27.20;21.95;;;19.70;99.90;;;;;;5064923;28;20211;-81
2023/08/19 05:19:06;;;;;;;29.65;22.88;;;19.90;99.90;;;;;;5067982;28;20242;-80
2023/08/19 05:21:33;;;;;;;28.60;22.55;;;19.80;99.90;;;;;;5063232;28;20311;-80
2023/08/19 05:24:00;;;;;;;26.83;21.30;;;19.90;99.90;;;;;;5065164;28;20214;-80
2023/08/19 05:26:28;;;;;;;24.60;21.13;;;20.00;99.90;;;;;;5064839;28;20268;-80
2023/08/19 05:28:54;;;;;;;24.33;20.92;;;20.20;99.90;;;;;;5057924;28;20233;-80
2023/08/19 05:31:21;;;;;;;25.13;21.75;;;20.10;99.90;;;;;;5064272;28;20261;-80
2023/08/19 05:33:48;;;;;;;25.20;21.83;;;20.40;99.90;;;;;;5059009;28;20207;-80
2023/08/19 05:36:15;;;;;;;25.05;22.27;;;20.30;99.90;;;;;;5065298;28;20199;-80
2023/08/19 05:38:42;;;;;;;24.85;21.23;;;20.40;99.90;;;;;;5063205;28;20291;-80
2023/08/19 05:41:09;;;;;;;25.83;21.98;;;20.50;99.90;;;;;;5061554;28;20207;-80
2023/08/19 05:43:37;;;;;;;23.48;20.08;;;20.50;99.90;;;;;;5071439;28;20237;-80
2023/08/19 05:46:05;;;;;;;24.15;20.45;;;20.60;99.90;;;;;;5065079;28;20577;-81
2023/08/19 05:48:32;;;;;;;23.55;20.20;;;20.70;99.90;;;;;;5066461;28;20741;-81
2023/08/19 05:50:59;;;;;;;27.05;20.10;;;20.80;99.90;;;;;;5068294;28;20645;-82
2023/08/19 05:53:26;;;;;;;23.20;19.73;;;20.90;99.90;;;;;;5060356;28;20205;-81
2023/08/19 05:55:53;;;;;;;19.65;17.23;;;21.00;99.90;;;;;;5071067;28;20667;-81
2023/08/19 05:58:20;;;;;;;21.27;18.10;;;21.20;99.90;;;;;;5065027;28;20209;-80
2023/08/19 06:00:48;;;;;;;20.05;16.80;;;21.40;99.90;;;;;;5069303;28;20660;-81
2023/08/19 06:03:15;;;;;;;20.40;16.92;;;21.50;99.90;;;;;;5073572;28;20209;-81
2023/08/19 06:05:42;;;;;;;20.67;16.17;;;21.60;99.90;;;;;;5075203;28;20198;-81
2023/08/19 06:08:09;;;;;;;21.27;16.60;;;21.60;99.90;;;;;;5072248;28;20222;-81
2023/08/19 06:10:36;;;;;;;23.33;15.98;;;21.80;99.90;;;;;;5070889;28;20581;-81
2023/08/19 06:13:02;;;;;;;21.05;16.58;;;21.60;99.90;;;;;;5078853;28;20292;-80
2023/08/19 06:15:29;;;;;;;20.10;16.80;;;21.60;99.90;;;;;;5081074;28;20647;-81
2023/08/19 06:17:57;;;;;;;20.67;17.08;;;21.50;99.90;;;;;;5070095;28;20209;-81
2023/08/19 06:20:24;;;;;;;22.33;16.83;;;21.50;99.90;;;;;;5078916;28;20226;-81
2023/08/19 06:22:51;;;;;;;20.48;16.20;;;21.60;99.90;;;;;;5072164;28;20300;-81
2023/08/19 06:25:18;;;;;;;21.00;17.02;;;21.70;99.90;;;;;;5070784;28;20199;-82
2023/08/19 06:27:45;;;;;;;20.70;16.88;;;21.90;99.90;;;;;;5070933;28;20214;-81
2023/08/19 06:30:13;;;;;;;19.08;15.43;;;21.90;99.90;;;;;;5077805;28;20238;-81
2023/08/19 06:32:40;;;;;;;20.27;16.15;;;22.00;99.90;;;;;;5073163;28;20203;-81
2023/08/19 06:35:10;;;;;;;22.02;15.52;;;22.20;99.90;;;;;;5071011;28;20285;-81
2023/08/19 06:37:42;;;;;;;20.05;15.30;;;22.40;99.90;;;;;;5061330;28;20205;-81
2023/08/19 06:40:13;;;;;;;19.13;14.80;;;22.60;99.90;;;;;;5072761;28;20250;-81
2023/08/19 06:42:42;;;;;;;18.77;14.95;;;22.60;99.90;;;;;;5064549;28;20258;-80
2023/08/19 06:45:10;;;;;;;19.27;14.88;;;22.80;99.90;;;;;;5063549;28;20199;-81
2023/08/19 06:47:39;;;;;;;18.25;14.65;;;22.80;99.90;;;;;;5064623;28;20293;-81
2023/08/19 06:50:07;;;;;;;17.77;14.98;;;22.80;99.90;;;;;;5064753;28;20218;-80
2023/08/19 06:52:36;;;;;;;18.40;14.93;;;22.80;99.90;;;;;;5073881;28;20198;-81
2023/08/19 06:55:04;;;;;;;18.55;14.93;;;22.70;99.90;;;;;;5074071;28;20210;-81
2023/08/19 06:57:38;;;;;;;18.38;14.25;;;22.80;99.90;;;;;;5067092;28;20194;-81
2023/08/19 07:00:08;;;;;;;16.23;14.02;;;23.00;99.90;;;;;;5069995;28;20222;-81
2023/08/19 07:02:37;;;;;;;15.60;13.90;;;23.20;99.90;;;;;;5078598;28;20207;-81
2023/08/19 07:05:08;;;;;;;17.50;14.20;;;23.30;99.90;;;;;;5066694;28;20639;-81
2023/08/19 07:07:39;;;;;;;17.33;14.55;;;23.40;99.90;;;;;;5065772;28;20306;-80
2023/08/19 07:10:08;;;;;;;14.45;12.52;;;23.50;99.90;;;;;;5070303;28;20950;-81
2023/08/19 07:12:35;;;;;;;17.67;14.27;;;24.00;99.90;;;;;;5071447;28;20214;-80
2023/08/19 07:15:07;;;;;;;17.42;14.38;;;24.70;99.90;;;;;;5073025;28;20609;-81
2023/08/19 07:17:35;;;;;;;14.15;12.30;;;24.50;99.90;;;;;;5069312;28;20619;-81
2023/08/19 07:20:04;;;;;;;18.38;13.73;;;24.30;99.90;;;;;;5068962;28;20312;-81
2023/08/19 07:22:37;;;;;;;17.10;13.38;;;24.30;99.90;;;;;;5064476;28;20237;-83
2023/08/19 07:25:06;;;;;;;16.00;12.82;;;24.60;99.90;;;;;;5073030;28;20202;-81
2023/08/19 07:27:35;;;;;;;16.08;13.55;;;24.40;99.90;;;;;;5076357;28;20249;-82
2023/08/19 07:30:04;;;;;;;16.00;13.27;;;24.20;99.90;;;;;;5062256;28;20234;-81
2023/08/19 07:32:32;;;;;;;15.68;13.18;;;24.60;99.90;;;;;;5076847;28;20600;-82
2023/08/19 07:34:59;;;;;;;15.77;12.45;;;24.70;99.90;;;;;;5074644;28;20206;-82
2023/08/19 07:37:26;;;;;;;16.98;13.40;;;24.80;99.90;;;;;;5066688;28;20205;-80
2023/08/19 07:39:54;;;;;;;15.30;13.23;;;24.50;99.90;;;;;;5075805;28;20218;-81
2023/08/19 07:42:21;;;;;;;15.18;13.20;;;24.70;99.90;;;;;;5065196;28;20211;-81
2023/08/19 07:44:48;;;;;;;14.07;12.32;;;24.60;99.90;;;;;;5067569;28;20202;-82
2023/08/19 07:47:15;;;;;;;15.32;12.57;;;24.70;99.90;;;;;;5065953;28;20203;-81
2023/08/19 07:49:42;;;;;;;15.05;12.65;;;24.70;99.90;;;;;;5067533;28;20310;-80
2023/08/19 07:52:09;;;;;;;15.32;12.20;;;24.60;99.90;;;;;;5075635;28;20679;-81
2023/08/19 07:54:35;;;;;;;15.45;12.50;;;24.60;99.90;;;;;;5071321;28;20254;-81
2023/08/19 07:57:04;;;;;;;15.15;12.88;;;24.60;99.90;;;;;;5067902;28;20229;-81
2023/08/19 07:59:31;;;;;;;16.10;13.15;;;24.70;99.90;;;;;;5061361;28;20673;-82
2023/08/19 08:01:57;;;;;;;14.75;12.27;;;24.70;99.90;;;;;;5063047;28;20652;-82
2023/08/19 08:04:24;;;;;;;14.18;11.57;;;24.70;99.90;;;;;;5077904;28;20202;-80
2023/08/19 08:06:51;;;;;;;13.45;11.38;;;25.00;99.90;;;;;;5074709;28;20637;-82
2023/08/19 08:09:19;;;;;;;13.10;11.38;;;25.10;99.90;;;;;;5068756;28;20227;-81
2023/08/19 08:11:47;;;;;;;13.48;11.35;;;25.10;99.90;;;;;;5070665;28;20199;-82
2023/08/19 08:14:16;;;;;;;14.88;12.02;;;25.20;99.90;;;;;;5075699;28;20206;-82
2023/08/19 08:16:45;;;;;;;13.05;11.65;;;25.20;99.90;;;;;;5073821;28;20222;-81
2023/08/19 08:19:12;;;;;;;13.98;10.68;;;25.30;99.90;;;;;;5070167;28;20229;-82
2023/08/19 08:21:39;;;;;;;13.98;9.95;;;25.40;99.90;;;;;;5077341;28;20210;-81
2023/08/19 08:24:06;;;;;;;12.20;10.18;;;25.50;99.90;;;;;;5072465;28;20234;-82
2023/08/19 08:26:33;;;;;;;13.20;11.02;;;25.70;99.90;;;;;;5064145;28;20229;-82
2023/08/19 08:29:00;;;;;;;11.45;10.02;;;25.80;99.90;;;;;;5073527;28;20234;-82
2023/08/19 08:31:28;;;;;;;11.90;10.50;;;25.90;99.90;;;;;;5067168;28;20210;-82
2023/08/19 08:33:55;;;;;;;12.38;9.63;;;25.90;99.90;;;;;;5059976;28;20225;-82
2023/08/19 08:36:21;;;;;;;12.15;9.65;;;26.40;99.90;;;;;;5070994;28;20289;-81
2023/08/19 08:38:48;;;;;;;13.48;9.73;;;26.20;99.90;;;;;;5068302;28;20247;-81
2023/08/19 08:41:15;;;;;;;10.77;9.55;;;26.30;99.90;;;;;;5076663;28;20202;-81
2023/08/19 08:43:45;;;;;;;11.20;9.80;;;26.40;99.90;;;;;;5068917;28;20208;-81
2023/08/19 08:46:14;;;;;;;10.95;9.63;;;26.40;99.90;;;;;;5076764;28;20202;-80
2023/08/19 08:48:43;;;;;;;11.38;9.30;;;26.50;99.90;;;;;;5063069;28;20237;-82
2023/08/19 08:51:12;;;;;;;10.45;9.15;;;26.60;99.90;;;;;;5071115;28;20207;-81
2023/08/19 08:53:38;;;;;;;9.77;8.77;;;26.50;99.90;;;;;;5069702;28;20286;-81
2023/08/19 08:56:07;;;;;;;10.65;8.52;;;26.70;99.90;;;;;;5064717;28;20228;-82
2023/08/19 08:58:34;;;;;;;10.60;7.55;;;26.70;99.90;;;;;;5074967;28;20219;-81
2023/08/19 09:01:02;;;;;;;9.23;7.88;;;26.90;99.90;;;;;;5065148;28;20219;-80
2023/08/19 09:03:33;;;;;;;9.82;8.20;;;27.20;99.90;;;;;;5068151;28;20199;-83
2023/08/19 09:06:08;;;;;;;11.85;8.25;;;27.30;99.90;;;;;;5075981;28;20714;-81
2023/08/19 09:08:42;;;;;;;8.98;8.00;;;27.30;99.90;;;;;;5065176;28;20317;-80
2023/08/19 09:11:12;;;;;;;10.05;7.22;;;27.90;99.90;;;;;;5069439;28;20595;-81
2023/08/19 09:13:41;;;;;;;8.43;7.35;;;28.20;99.90;;;;;;5065927;28;20552;-81
2023/08/19 09:16:11;;;;;;;8.32;7.45;;;28.70;99.90;;;;;;5058674;28;20657;-80
2023/08/19 09:18:38;;;;;;;8.70;7.10;;;28.80;99.90;;;;;;5058786;28;20739;-82
2023/08/19 09:21:06;;;;;;;7.70;6.90;;;29.30;99.90;;;;;;5070806;28;20271;-82
2023/08/19 09:23:33;;;;;;;9.95;7.88;;;29.70;99.90;;;;;;5063781;28;20202;-81
2023/08/19 09:26:01;;;;;;;8.18;6.70;;;29.80;99.90;;;;;;5065050;28;20661;-81
2023/08/19 09:28:28;;;;;;;9.32;7.18;;;30.20;99.90;;;;;;5059182;28;20223;-81
2023/08/19 09:30:55;;;;;;;8.57;6.90;;;30.60;99.90;;;;;;5069546;28;20198;-81
2023/08/19 09:33:22;;;;;;;8.23;7.18;;;30.40;99.90;;;;;;5062577;28;20580;-80
2023/08/19 09:35:57;;;;;;;9.63;7.53;;;30.90;99.90;;;;;;5063005;28;20205;-81
2023/08/19 09:38:26;;;;;;;8.52;6.43;;;31.30;99.90;;;;;;5063112;28;20202;-82
2023/08/19 09:41:01;;;;;;;9.80;7.10;;;31.40;99.90;;;;;;5063141;28;20578;-80
2023/08/19 09:43:29;;;;;;;7.60;6.60;;;31.10;99.90;;;;;;5057086;28;20199;-80
2023/08/19 09:46:00;;;;;;;8.52;6.53;;;31.00;99.90;;;;;;5070399;28;20256;-81
2023/08/19 09:48:27;;;;;;;6.40;5.72;;;31.20;99.90;;;;;;5060571;28;20246;-82
2023/08/19 09:50:54;;;;;;;7.90;6.20;;;31.60;99.90;;;;;;5070893;28;20294;-81
2023/08/19 09:53:21;;;;;;;7.30;6.50;;;31.80;99.90;;;;;;5059485;28;20195;-82
2023/08/19 09:55:50;;;;;;;7.88;6.20;;;31.90;99.90;;;;;;5073930;28;20558;-82
2023/08/19 09:58:17;;;;;;;8.18;6.25;;;31.90;99.90;;;;;;5062640;28;20195;-82
2023/08/19 10:00:44;;;;;;;7.05;6.30;;;32.40;99.90;;;;;;5065556;28;20245;-81
2023/08/19 10:03:11;;;;;;;6.70;5.95;;;32.80;99.90;;;;;;5076447;28;20201;-82
2023/08/19 10:05:40;;;;;;;6.38;5.78;;;32.60;99.90;;;;;;5058043;28;20207;-81
2023/08/19 10:08:19;;;;;;;8.45;6.28;;;33.00;99.90;;;;;;5075967;28;20224;-81
2023/08/19 10:10:47;;;;;;;7.22;5.53;;;32.90;99.90;;;;;;5097561;28;20194;-81
2023/08/19 10:13:17;;;;;;;6.15;5.65;;;32.40;99.90;;;;;;5099535;28;20205;-80
2023/08/19 10:15:44;;;;;;;5.68;5.10;;;32.80;99.90;;;;;;5100031;28;20272;-81
2023/08/19 10:18:15;;;;;;;5.90;4.63;;;33.10;99.90;;;;;;5098947;28;20460;-80
2023/08/19 10:20:43;;;;;;;6.38;5.00;;;32.90;99.90;;;;;;5098169;28;20685;-77
2023/08/19 10:23:11;;;;;;;6.13;5.15;;;33.30;99.90;;;;;;5057370;28;20274;-78
2023/08/19 10:25:42;;;;;;;5.72;5.07;;;33.40;99.90;;;;;;5076854;28;20205;-78
2023/08/19 10:28:22;;;;;;;9.20;5.32;;;33.60;99.90;;;;;;5079160;28;20266;-78
2023/08/19 10:31:08;;;;;;;6.65;5.95;;;33.30;99.90;;;;;;5079452;28;20206;-78
2023/08/19 10:33:40;;;;;;;7.30;6.10;;;33.40;99.90;;;;;;5080571;28;20595;-78
2023/08/19 10:36:08;;;;;;;6.35;4.30;;;33.80;99.90;;;;;;5072932;28;20597;-78
2023/08/19 10:38:46;;;;;;;7.13;4.43;;;33.50;99.90;;;;;;5068898;28;20230;-78
2023/08/19 10:41:25;;;;;;;6.63;4.97;;;33.40;99.90;;;;;;5073135;28;20289;-77
2023/08/19 10:43:59;;;;;;;7.18;4.95;;;33.40;99.90;;;;;;5071294;28;20673;-78
2023/08/19 10:46:31;;;;;;;5.60;4.68;;;33.60;99.90;;;;;;5070786;28;20201;-78
2023/08/19 10:48:58;;;;;;;7.50;4.78;;;33.60;99.90;;;;;;5082879;28;20315;-78
2023/08/19 10:51:50;;;;;;;5.85;5.07;;;33.50;99.90;;;;;;5075735;28;20641;-78
2023/08/19 10:54:26;;;;;;;5.88;4.20;;;33.70;99.90;;;;;;5069395;28;20207;-78
2023/08/19 10:56:53;;;;;;;6.45;4.50;;;33.90;99.90;;;;;;5079162;28;20285;-78
2023/08/19 10:59:21;;;;;;;4.70;4.30;;;33.20;99.90;;;;;;5081566;28;20218;-78
2023/08/19 11:02:00;;;;;;;4.70;4.30;;;33.60;99.90;;;;;;5074544;28;20688;-78
2023/08/19 11:04:29;;;;;;;7.05;4.50;;;33.60;99.90;;;;;;5071452;28;20249;-78
2023/08/19 11:06:57;;;;;;;5.63;4.03;;;33.60;99.90;;;;;;5077080;28;20206;-78
2023/08/19 11:09:26;;;;;;;4.22;3.83;;;34.30;99.90;;;;;;5074724;28;20217;-78
2023/08/19 11:11:55;;;;;;;4.85;4.03;;;34.50;99.90;;;;;;5069270;28;20581;-78
2023/08/19 11:14:24;;;;;;;6.13;4.88;;;34.10;99.90;;;;;;5074904;28;20325;-78
2023/08/19 11:16:53;;;;;;;7.00;4.75;;;34.20;99.90;;;;;;5072390;28;20207;-78
2023/08/19 11:19:20;;;;;;;5.20;4.75;;;34.00;99.90;;;;;;5067888;28;20223;-78
2023/08/19 11:21:47;;;;;;;8.80;4.60;;;33.90;99.90;;;;;;5079253;28;20209;-78
2023/08/19 11:24:15;;;;;;;4.70;4.30;;;33.80;99.90;;;;;;5073625;28;20289;-78
2023/08/19 11:26:42;;;;;;;6.53;4.65;;;34.00;99.90;;;;;;5071365;28;20282;-78
2023/08/19 11:29:10;;;;;;;5.13;4.45;;;33.70;99.90;;;;;;5075423;28;20305;-78
2023/08/19 11:31:39;;;;;;;6.22;4.45;;;33.30;99.90;;;;;;5075593;28;20205;-78
2023/08/19 11:34:08;;;;;;;4.72;4.05;;;33.40;99.90;;;;;;5069749;28;20270;-78
2023/08/19 11:36:35;;;;;;;11.57;8.05;;;33.20;99.90;;;;;;5076682;28;20194;-78
2023/08/19 11:39:02;;;;;;;11.93;7.30;;;33.20;99.90;;;;;;5073294;28;20222;-78
2023/08/19 11:41:29;;;;;;;9.55;5.38;;;32.80;99.90;;;;;;5076337;28;20194;-79
2023/08/19 11:43:57;;;;;;;9.93;5.80;;;33.00;99.90;;;;;;5072218;28;20207;-79
2023/08/19 11:46:28;;;;;;;10.50;5.63;;;33.40;99.90;;;;;;5074526;28;20203;-80
2023/08/19 11:48:55;;;;;;;8.10;5.88;;;33.80;99.90;;;;;;5074858;28;20262;-78
2023/08/19 11:51:23;;;;;;;9.63;4.70;;;34.30;99.90;;;;;;5067940;28;20246;-79
2023/08/19 11:53:52;;;;;;;4.97;4.30;;;33.90;99.90;;;;;;5077490;28;20203;-78
2023/08/19 11:56:20;;;;;;;5.28;4.38;;;33.30;99.90;;;;;;5071337;28;20195;-78
2023/08/19 11:58:49;;;;;;;5.03;4.35;;;32.70;99.90;;;;;;5063012;28;20229;-78
2023/08/19 12:01:16;;;;;;;7.50;5.05;;;32.60;99.90;;;;;;5074159;28;20217;-79
2023/08/19 12:03:44;;;;;;;6.60;5.15;;;32.70;99.90;;;;;;5072469;28;20207;-78
2023/08/19 12:06:11;;;;;;;7.20;4.70;;;32.40;99.90;;;;;;5072194;28;20199;-78
2023/08/19 12:08:40;;;;;;;7.80;4.70;;;32.70;99.90;;;;;;5067931;28;20733;-78
2023/08/19 12:11:07;;;;;;;5.78;4.95;;;32.70;99.90;;;;;;5069443;28;20194;-78
2023/08/19 12:13:34;;;;;;;5.53;4.47;;;32.80;99.90;;;;;;5067025;28;20266;-79
2023/08/19 12:16:01;;;;;;;5.07;4.35;;;32.70;99.90;;;;;;5072115;28;20649;-79
2023/08/19 12:18:30;;;;;;;6.32;4.85;;;32.70;99.90;;;;;;5078331;28;20229;-78
2023/08/19 12:20:57;;;;;;;5.72;5.22;;;32.30;99.90;;;;;;5069327;28;20217;-79
2023/08/19 12:23:24;;;;;;;5.28;4.60;;;32.40;99.90;;;;;;5072174;28;20563;-79
2023/08/19 12:25:53;;;;;;;5.78;4.90;;;32.40;99.90;;;;;;5070200;28;20211;-78
2023/08/19 12:28:22;;;;;;;7.30;4.95;;;32.30;99.90;;;;;;5073537;28;20262;-79
2023/08/19 12:30:49;;;;;;;5.72;5.20;;;32.30;99.90;;;;;;5073304;28;20224;-78
2023/08/19 12:33:18;;;;;;;8.48;5.32;;;32.40;99.90;;;;;;5072302;28;20264;-79
2023/08/19 12:35:46;;;;;;;11.95;5.75;;;32.50;99.90;;;;;;5075786;28;20206;-78
2023/08/19 12:38:14;;;;;;;5.65;4.85;;;32.40;99.90;;;;;;5073819;28;20214;-78